sensor_id;sensor_type;location;lat;lon;timestamp;pressure;altitude;pressure_sealevel;temperature;humidity
33795;BME280;51430;52.242;21.118;2023-05-20T05:03:25;101452.76;;;17.19;77.44
33795;BME280;51430;52.242;21.118;2023-05-20T05:05:57;101456.83;;;17.25;77.66
33795;BME280;51430;52.242;21.118;2023-05-20T05:08:25;101457.75;;;17.41;76.64
33795;BME280;51430;52.242;21.118;2023-05-20T05:10:53;101458.92;;;17.32;75.39
33795;BME280;51430;52.242;21.118;2023-05-20T05:13:22;101459.20;;;17.37;76.33
33795;BME280;51430;52.242;21.118;2023-05-20T05:16:00;101458.65;;;17.57;76.46
33795;BME280;51430;52.242;21.118;2023-05-20T05:18:31;101455.39;;;17.64;75.26
33795;BME280;51430;52.242;21.118;2023-05-20T05:21:01;101460.45;;;17.63;74.46
33795;BME280;51430;52.242;21.118;2023-05-20T05:23:32;101450.38;;;17.73;74.93
33795;BME280;51430;52.242;21.118;2023-05-20T05:26:00;101449.20;;;17.88;74.11
33795;BME280;51430;52.242;21.118;2023-05-20T05:28:28;101451.38;;;18.03;73.95
33795;BME280;51430;52.242;21.118;2023-05-20T05:30:58;101448.57;;;18.18;73.25
33795;BME280;51430;52.242;21.118;2023-05-20T05:38:02;101457.31;;;18.69;72.88
33795;BME280;51430;52.242;21.118;2023-05-20T05:40:30;101454.58;;;18.96;71.94
33795;BME280;51430;52.242;21.118;2023-05-20T05:42:58;101458.19;;;19.07;70.67
33795;BME280;51430;52.242;21.118;2023-05-20T05:45:27;101462.09;;;19.18;70.60
33795;BME280;51430;52.242;21.118;2023-05-20T05:47:55;101463.05;;;19.36;70.27
33795;BME280;51430;52.242;21.118;2023-05-20T05:50:24;101463.53;;;19.59;69.69
33795;BME280;51430;52.242;21.118;2023-05-20T05:52:59;101465.52;;;19.87;68.73
33795;BME280;51430;52.242;21.118;2023-05-20T05:55:28;101467.66;;;19.93;68.47
33795;BME280;51430;52.242;21.118;2023-05-20T05:57:56;101465.58;;;19.90;68.32
33795;BME280;51430;52.242;21.118;2023-05-20T06:00:27;101468.05;;;19.88;67.64
33795;BME280;51430;52.242;21.118;2023-05-20T06:02:55;101466.48;;;19.97;68.50
33795;BME280;51430;52.242;21.118;2023-05-20T06:05:24;101464.75;;;20.07;67.36
33795;BME280;51430;52.242;21.118;2023-05-20T06:07:56;101467.08;;;20.09;67.38
33795;BME280;51430;52.242;21.118;2023-05-20T06:10:24;101471.78;;;20.26;67.52
33795;BME280;51430;52.242;21.118;2023-05-20T06:12:52;101470.07;;;20.66;66.26
33795;BME280;51430;52.242;21.118;2023-05-20T06:15:21;101473.09;;;21.15;64.64
33795;BME280;51430;52.242;21.118;2023-05-20T06:17:49;101471.23;;;21.54;63.67
33795;BME280;51430;52.242;21.118;2023-05-20T06:20:18;101466.55;;;22.10;62.30
33795;BME280;51430;52.242;21.118;2023-05-20T06:22:47;101469.23;;;22.13;58.91
33795;BME280;51430;52.242;21.118;2023-05-20T06:25:15;101472.14;;;21.99;58.46
33795;BME280;51430;52.242;21.118;2023-05-20T06:27:45;101471.95;;;22.13;58.82
33795;BME280;51430;52.242;21.118;2023-05-20T06:30:17;101468.64;;;22.38;57.68
33795;BME280;51430;52.242;21.118;2023-05-20T06:32:46;101466.11;;;22.34;56.25
33795;BME280;51430;52.242;21.118;2023-05-20T06:35:17;101464.25;;;22.21;56.77
33795;BME280;51430;52.242;21.118;2023-05-20T06:37:46;101462.13;;;22.56;57.02
33795;BME280;51430;52.242;21.118;2023-05-20T06:40:24;101461.23;;;23.20;55.80
33795;BME280;51430;52.242;21.118;2023-05-20T06:42:54;101463.81;;;23.63;54.28
33795;BME280;51430;52.242;21.118;2023-05-20T06:45:23;101460.92;;;24.11;53.06
33795;BME280;51430;52.242;21.118;2023-05-20T06:47:50;101463.39;;;24.49;51.37
33795;BME280;51430;52.242;21.118;2023-05-20T06:50:21;101461.21;;;24.56;52.12
33795;BME280;51430;52.242;21.118;2023-05-20T06:52:48;101462.05;;;24.37;50.70
33795;BME280;51430;52.242;21.118;2023-05-20T06:55:17;101452.61;;;23.92;51.96
33795;BME280;51430;52.242;21.118;2023-05-20T06:57:45;101453.54;;;24.26;52.36
33795;BME280;51430;52.242;21.118;2023-05-20T07:00:13;101448.73;;;24.47;51.52
33795;BME280;51430;52.242;21.118;2023-05-20T07:02:41;101450.70;;;24.62;50.99
33795;BME280;51430;52.242;21.118;2023-05-20T07:05:10;101448.05;;;24.74;50.66
33795;BME280;51430;52.242;21.118;2023-05-20T07:07:38;101451.09;;;24.93;49.98
33795;BME280;51430;52.242;21.118;2023-05-20T07:10:06;101450.48;;;25.11;50.05
33795;BME280;51430;52.242;21.118;2023-05-20T07:12:34;101451.10;;;24.71;49.93
33795;BME280;51430;52.242;21.118;2023-05-20T07:15:03;101446.91;;;25.25;50.15
33795;BME280;51430;52.242;21.118;2023-05-20T07:17:31;101449.89;;;25.50;48.52
33795;BME280;51430;52.242;21.118;2023-05-20T07:19:59;101449.16;;;25.49;48.09
33795;BME280;51430;52.242;21.118;2023-05-20T07:22:27;101445.38;;;25.73;48.65
33795;BME280;51430;52.242;21.118;2023-05-20T07:24:54;101445.17;;;25.88;47.15
33795;BME280;51430;52.242;21.118;2023-05-20T07:27:22;101445.11;;;26.18;48.13
33795;BME280;51430;52.242;21.118;2023-05-20T07:29:50;101439.19;;;26.68;47.34
33795;BME280;51430;52.242;21.118;2023-05-20T07:32:18;101442.05;;;27.17;47.15
33795;BME280;51430;52.242;21.118;2023-05-20T07:34:45;101443.66;;;27.36;45.64
33795;BME280;51430;52.242;21.118;2023-05-20T07:37:15;101443.19;;;27.60;45.55
33795;BME280;51430;52.242;21.118;2023-05-20T07:39:51;101439.98;;;27.91;44.17
33795;BME280;51430;52.242;21.118;2023-05-20T07:42:21;101438.65;;;28.21;44.33
33795;BME280;51430;52.242;21.118;2023-05-20T07:44:56;101430.48;;;28.28;44.60
33795;BME280;51430;52.242;21.118;2023-05-20T07:47:27;101431.48;;;28.33;43.15
33795;BME280;51430;52.242;21.118;2023-05-20T07:49:56;101423.56;;;27.97;43.76
33795;BME280;51430;52.242;21.118;2023-05-20T07:52:24;101420.88;;;27.99;43.99
33795;BME280;51430;52.242;21.118;2023-05-20T07:54:51;101423.76;;;28.25;44.08
33795;BME280;51430;52.242;21.118;2023-05-20T07:57:20;101423.45;;;27.40;44.16
33795;BME280;51430;52.242;21.118;2023-05-20T07:59:52;101423.66;;;27.63;44.10
33795;BME280;51430;52.242;21.118;2023-05-20T08:02:20;101423.03;;;27.70;44.14
33795;BME280;51430;52.242;21.118;2023-05-20T08:04:48;101422.77;;;27.42;43.82
33795;BME280;51430;52.242;21.118;2023-05-20T08:07:16;101420.13;;;26.49;45.60
33795;BME280;51430;52.242;21.118;2023-05-20T08:09:43;101418.10;;;26.42;46.35
33795;BME280;51430;52.242;21.118;2023-05-20T08:12:11;101415.42;;;26.62;45.47
33795;BME280;51430;52.242;21.118;2023-05-20T08:14:40;101417.10;;;26.56;45.73
33795;BME280;51430;52.242;21.118;2023-05-20T08:17:08;101421.95;;;26.63;46.84
33795;BME280;51430;52.242;21.118;2023-05-20T08:19:36;101423.60;;;27.34;45.51
33795;BME280;51430;52.242;21.118;2023-05-20T08:22:04;101425.89;;;27.28;44.61
33795;BME280;51430;52.242;21.118;2023-05-20T08:24:32;101422.20;;;27.73;45.20
33795;BME280;51430;52.242;21.118;2023-05-20T08:27:00;101425.95;;;28.47;44.03
33795;BME280;51430;52.242;21.118;2023-05-20T08:29:28;101429.24;;;29.13;42.47
33795;BME280;51430;52.242;21.118;2023-05-20T08:31:56;101429.86;;;29.52;41.33
33795;BME280;51430;52.242;21.118;2023-05-20T08:34:23;101431.16;;;29.83;41.21
33795;BME280;51430;52.242;21.118;2023-05-20T08:36:51;101433.05;;;29.93;40.72
33795;BME280;51430;52.242;21.118;2023-05-20T08:39:19;101430.37;;;30.20;41.10
33795;BME280;51430;52.242;21.118;2023-05-20T08:41:48;101435.48;;;30.04;40.44
33795;BME280;51430;52.242;21.118;2023-05-20T08:44:16;101434.18;;;29.79;41.63
33795;BME280;51430;52.242;21.118;2023-05-20T08:46:44;101431.32;;;29.90;41.44
33795;BME280;51430;52.242;21.118;2023-05-20T08:49:13;101429.88;;;29.41;41.58
33795;BME280;51430;52.242;21.118;2023-05-20T08:51:41;101427.41;;;29.28;41.81
33795;BME280;51430;52.242;21.118;2023-05-20T08:54:09;101429.00;;;28.74;41.83
33795;BME280;51430;52.242;21.118;2023-05-20T08:56:38;101421.73;;;28.30;42.37
33795;BME280;51430;52.242;21.118;2023-05-20T08:59:08;101420.39;;;28.67;42.62
33795;BME280;51430;52.242;21.118;2023-05-20T09:01:40;101414.70;;;28.61;41.78
33795;BME280;51430;52.242;21.118;2023-05-20T09:04:10;101413.80;;;28.21;43.00
33795;BME280;51430;52.242;21.118;2023-05-20T09:06:45;101412.59;;;27.17;44.43
33795;BME280;51430;52.242;21.118;2023-05-20T09:09:13;101409.73;;;27.06;45.29
33795;BME280;51430;52.242;21.118;2023-05-20T09:11:42;101411.05;;;27.04;44.97
33795;BME280;51430;52.242;21.118;2023-05-20T09:14:10;101410.14;;;27.11;45.08
33795;BME280;51430;52.242;21.118;2023-05-20T09:16:39;101407.40;;;28.28;42.76
33795;BME280;51430;52.242;21.118;2023-05-20T09:19:09;101411.13;;;28.71;42.09
33795;BME280;51430;52.242;21.118;2023-05-20T09:21:37;101408.58;;;29.02;41.62
33795;BME280;51430;52.242;21.118;2023-05-20T09:24:07;101411.02;;;29.35;41.87
33795;BME280;51430;52.242;21.118;2023-05-20T09:26:35;101404.88;;;29.45;41.28
33795;BME280;51430;52.242;21.118;2023-05-20T09:29:03;101401.89;;;28.81;41.64
33795;BME280;51430;52.242;21.118;2023-05-20T09:31:31;101405.21;;;28.86;42.25
33795;BME280;51430;52.242;21.118;2023-05-20T09:34:03;101400.17;;;28.86;41.86
33795;BME280;51430;52.242;21.118;2023-05-20T09:36:33;101404.38;;;29.03;41.04
33795;BME280;51430;52.242;21.118;2023-05-20T09:39:02;101403.44;;;28.97;41.34
33795;BME280;51430;52.242;21.118;2023-05-20T09:41:34;101399.02;;;29.00;41.98
33795;BME280;51430;52.242;21.118;2023-05-20T09:44:05;101402.98;;;29.38;40.86
33795;BME280;51430;52.242;21.118;2023-05-20T09:46:35;101403.58;;;29.37;40.79
33795;BME280;51430;52.242;21.118;2023-05-20T09:49:03;101406.76;;;29.39;40.68
33795;BME280;51430;52.242;21.118;2023-05-20T09:51:34;101402.94;;;28.86;41.06
33795;BME280;51430;52.242;21.118;2023-05-20T09:54:02;101403.11;;;28.54;42.25
33795;BME280;51430;52.242;21.118;2023-05-20T09:56:33;101402.75;;;29.89;40.20
33795;BME280;51430;52.242;21.118;2023-05-20T09:59:01;101404.59;;;30.88;38.68
33795;BME280;51430;52.242;21.118;2023-05-20T10:01:31;101404.72;;;31.33;37.37
33795;BME280;51430;52.242;21.118;2023-05-20T10:03:59;101395.43;;;30.20;39.17
33795;BME280;51430;52.242;21.118;2023-05-20T10:12:55;101389.55;;;29.47;40.74
33795;BME280;51430;52.242;21.118;2023-05-20T10:21:15;101393.42;;;29.07;41.09
33795;BME280;51430;52.242;21.118;2023-05-20T10:23:43;101388.82;;;30.17;40.02
33795;BME280;51430;52.242;21.118;2023-05-20T10:26:12;101388.85;;;30.13;39.52
33795;BME280;51430;52.242;21.118;2023-05-20T10:28:40;101385.50;;;30.19;39.62
33795;BME280;51430;52.242;21.118;2023-05-20T10:31:16;101381.59;;;30.35;38.54
33795;BME280;51430;52.242;21.118;2023-05-20T10:33:45;101381.14;;;29.65;39.76
33795;BME280;51430;52.242;21.118;2023-05-20T10:36:27;101385.50;;;29.14;40.78
33795;BME280;51430;52.242;21.118;2023-05-20T10:38:58;101377.70;;;27.85;42.43
33795;BME280;51430;52.242;21.118;2023-05-20T10:41:27;101372.48;;;27.30;44.05
33795;BME280;51430;52.242;21.118;2023-05-20T10:44:03;101373.41;;;28.24;43.30
33795;BME280;51430;52.242;21.118;2023-05-20T10:46:33;101376.14;;;29.68;41.50
33795;BME280;51430;52.242;21.118;2023-05-20T10:49:20;101370.23;;;31.54;38.16
33795;BME280;51430;52.242;21.118;2023-05-20T10:51:54;101367.71;;;31.47;37.03
33795;BME280;51430;52.242;21.118;2023-05-20T10:54:22;101363.45;;;31.21;37.79
33795;BME280;51430;52.242;21.118;2023-05-20T10:56:51;101363.63;;;30.94;38.65
33795;BME280;51430;52.242;21.118;2023-05-20T10:59:20;101359.09;;;30.73;38.83
33795;BME280;51430;52.242;21.118;2023-05-20T11:01:48;101359.14;;;31.80;37.06
33795;BME280;51430;52.242;21.118;2023-05-20T11:04:17;101354.64;;;31.87;36.68
33795;BME280;51430;52.242;21.118;2023-05-20T11:06:50;101355.20;;;31.21;37.90
33795;BME280;51430;52.242;21.118;2023-05-20T11:09:21;101350.97;;;30.92;37.94
33795;BME280;51430;52.242;21.118;2023-05-20T11:11:53;101348.34;;;30.68;38.09
33795;BME280;51430;52.242;21.118;2023-05-20T11:14:22;101344.05;;;29.75;38.91
33795;BME280;51430;52.242;21.118;2023-05-20T11:16:51;101338.27;;;29.87;39.60
33795;BME280;51430;52.242;21.118;2023-05-20T11:19:20;101330.83;;;30.20;38.83
33795;BME280;51430;52.242;21.118;2023-05-20T11:21:48;101329.11;;;30.37;38.31
33795;BME280;51430;52.242;21.118;2023-05-20T11:24:24;101326.55;;;31.38;37.57
33795;BME280;51430;52.242;21.118;2023-05-20T11:26:54;101328.15;;;32.69;35.68
33795;BME280;51430;52.242;21.118;2023-05-20T11:29:22;101325.79;;;33.10;33.76
33795;BME280;51430;52.242;21.118;2023-05-20T11:31:52;101316.29;;;31.34;36.14
33795;BME280;51430;52.242;21.118;2023-05-20T11:34:21;101310.92;;;31.82;36.35
33795;BME280;51430;52.242;21.118;2023-05-20T11:36:56;101318.11;;;31.75;35.48
33795;BME280;51430;52.242;21.118;2023-05-20T11:39:28;101318.50;;;30.50;37.51
33795;BME280;51430;52.242;21.118;2023-05-20T11:41:57;101321.58;;;30.76;37.45
33795;BME280;51430;52.242;21.118;2023-05-20T11:44:25;101318.05;;;30.24;37.52
33795;BME280;51430;52.242;21.118;2023-05-20T11:47:01;101323.44;;;30.41;37.75
33795;BME280;51430;52.242;21.118;2023-05-20T11:49:29;101316.75;;;30.20;38.24
33795;BME280;51430;52.242;21.118;2023-05-20T11:52:07;101316.84;;;30.00;38.95
33795;BME280;51430;52.242;21.118;2023-05-20T11:54:35;101320.80;;;29.25;39.83
33795;BME280;51430;52.242;21.118;2023-05-20T11:57:03;101314.86;;;30.03;38.81
33795;BME280;51430;52.242;21.118;2023-05-20T11:59:33;101317.58;;;31.44;36.42
33795;BME280;51430;52.242;21.118;2023-05-20T12:02:01;101321.37;;;32.39;35.73
33795;BME280;51430;52.242;21.118;2023-05-20T12:04:29;101330.14;;;32.90;34.15
33795;BME280;51430;52.242;21.118;2023-05-20T12:06:58;101325.36;;;32.65;34.17
33795;BME280;51430;52.242;21.118;2023-05-20T12:09:25;101324.45;;;32.26;34.91
33795;BME280;51430;52.242;21.118;2023-05-20T12:11:54;101322.64;;;32.25;34.72
33795;BME280;51430;52.242;21.118;2023-05-20T12:14:23;101315.64;;;31.73;35.32
33795;BME280;51430;52.242;21.118;2023-05-20T12:16:51;101310.09;;;30.29;37.39
33795;BME280;51430;52.242;21.118;2023-05-20T12:19:20;101307.36;;;30.50;37.81
33795;BME280;51430;52.242;21.118;2023-05-20T12:21:48;101311.35;;;30.22;37.79
33795;BME280;51430;52.242;21.118;2023-05-20T12:24:20;101311.27;;;28.88;39.68
33795;BME280;51430;52.242;21.118;2023-05-20T12:26:48;101308.89;;;29.18;40.13
33795;BME280;51430;52.242;21.118;2023-05-20T12:29:15;101309.17;;;31.00;38.11
33795;BME280;51430;52.242;21.118;2023-05-20T12:31:43;101311.55;;;32.25;36.00
33795;BME280;51430;52.242;21.118;2023-05-20T12:34:11;101313.22;;;31.73;37.12
33795;BME280;51430;52.242;21.118;2023-05-20T12:36:39;101314.80;;;30.86;38.17
33795;BME280;51430;52.242;21.118;2023-05-20T12:39:07;101311.77;;;31.71;37.47
33795;BME280;51430;52.242;21.118;2023-05-20T12:41:35;101313.63;;;31.82;36.30
33795;BME280;51430;52.242;21.118;2023-05-20T12:44:04;101311.33;;;30.91;37.77
33795;BME280;51430;52.242;21.118;2023-05-20T12:46:32;101307.22;;;31.53;37.47
33795;BME280;51430;52.242;21.118;2023-05-20T12:49:00;101309.34;;;32.82;35.75
33795;BME280;51430;52.242;21.118;2023-05-20T12:51:29;101302.77;;;33.76;34.22
33795;BME280;51430;52.242;21.118;2023-05-20T12:53:57;101296.23;;;33.59;33.92
33795;BME280;51430;52.242;21.118;2023-05-20T12:56:25;101296.22;;;33.98;34.51
33795;BME280;51430;52.242;21.118;2023-05-20T12:58:53;101300.17;;;34.81;32.73
33795;BME280;51430;52.242;21.118;2023-05-20T13:01:21;101292.48;;;34.80;32.44
33795;BME280;51430;52.242;21.118;2023-05-20T13:03:49;101289.14;;;33.60;32.81
33795;BME280;51430;52.242;21.118;2023-05-20T13:06:20;101280.49;;;32.51;35.20
33795;BME280;51430;52.242;21.118;2023-05-20T13:08:47;101277.98;;;33.20;34.03
33795;BME280;51430;52.242;21.118;2023-05-20T13:11:15;101274.81;;;32.96;34.48
33795;BME280;51430;52.242;21.118;2023-05-20T13:13:43;101269.69;;;33.00;34.44
33795;BME280;51430;52.242;21.118;2023-05-20T13:16:11;101268.91;;;32.28;35.18
33795;BME280;51430;52.242;21.118;2023-05-20T13:18:39;101266.23;;;31.70;36.16
33795;BME280;51430;52.242;21.118;2023-05-20T13:21:06;101267.41;;;30.96;37.59
33795;BME280;51430;52.242;21.118;2023-05-20T13:23:34;101263.53;;;30.49;38.53
33795;BME280;51430;52.242;21.118;2023-05-20T13:26:03;101265.04;;;30.00;39.17
33795;BME280;51430;52.242;21.118;2023-05-20T13:28:31;101265.64;;;29.34;39.41
33795;BME280;51430;52.242;21.118;2023-05-20T13:31:04;101267.00;;;28.76;40.74
33795;BME280;51430;52.242;21.118;2023-05-20T13:33:33;101262.45;;;28.49;41.23
33795;BME280;51430;52.242;21.118;2023-05-20T13:36:01;101261.09;;;28.32;41.97
33795;BME280;51430;52.242;21.118;2023-05-20T13:38:29;101259.95;;;28.15;42.60
33795;BME280;51430;52.242;21.118;2023-05-20T13:40:56;101255.13;;;27.45;43.78
33795;BME280;51430;52.242;21.118;2023-05-20T13:43:25;101251.19;;;27.46;44.58
33795;BME280;51430;52.242;21.118;2023-05-20T13:45:54;101252.30;;;27.86;43.82
33795;BME280;51430;52.242;21.118;2023-05-20T13:48:22;101256.30;;;28.31;42.40
33795;BME280;51430;52.242;21.118;2023-05-20T13:50:50;101256.32;;;28.65;41.64
33795;BME280;51430;52.242;21.118;2023-05-20T13:53:18;101252.26;;;29.88;40.39
33795;BME280;51430;52.242;21.118;2023-05-20T13:55:45;101256.73;;;30.80;38.26
33795;BME280;51430;52.242;21.118;2023-05-20T13:58:13;101252.14;;;30.79;37.69
33795;BME280;51430;52.242;21.118;2023-05-20T14:00:41;101247.72;;;31.01;37.46
33795;BME280;51430;52.242;21.118;2023-05-20T14:03:08;101246.77;;;31.09;37.30
33795;BME280;51430;52.242;21.118;2023-05-20T14:05:37;101243.75;;;31.50;37.78
33795;BME280;51430;52.242;21.118;2023-05-20T14:08:04;101241.95;;;31.96;36.54
33795;BME280;51430;52.242;21.118;2023-05-20T14:10:32;101238.45;;;31.88;36.19
33795;BME280;51430;52.242;21.118;2023-05-20T14:13:00;101234.38;;;31.57;36.17
33795;BME280;51430;52.242;21.118;2023-05-20T14:15:28;101234.67;;;31.76;36.32
33795;BME280;51430;52.242;21.118;2023-05-20T14:17:59;101231.65;;;31.72;36.50
33795;BME280;51430;52.242;21.118;2023-05-20T14:20:27;101232.84;;;32.71;35.15
33795;BME280;51430;52.242;21.118;2023-05-20T14:22:55;101236.05;;;33.45;33.97
33795;BME280;51430;52.242;21.118;2023-05-20T14:25:23;101237.23;;;33.56;33.01
33795;BME280;51430;52.242;21.118;2023-05-20T14:27:50;101239.71;;;33.39;33.05
33795;BME280;51430;52.242;21.118;2023-05-20T14:30:18;101236.95;;;33.50;32.97
33795;BME280;51430;52.242;21.118;2023-05-20T14:32:46;101239.14;;;33.34;33.58
33795;BME280;51430;52.242;21.118;2023-05-20T14:35:14;101234.49;;;33.55;33.61
33795;BME280;51430;52.242;21.118;2023-05-20T14:37:43;101228.55;;;33.78;33.28
33795;BME280;51430;52.242;21.118;2023-05-20T14:40:11;101225.52;;;33.15;33.94
33795;BME280;51430;52.242;21.118;2023-05-20T14:42:39;101221.84;;;31.93;36.10
33795;BME280;51430;52.242;21.118;2023-05-20T14:45:07;101223.30;;;32.28;35.96
33795;BME280;51430;52.242;21.118;2023-05-20T14:47:36;101224.31;;;32.28;35.38
33795;BME280;51430;52.242;21.118;2023-05-20T14:50:07;101227.39;;;32.60;34.80
33795;BME280;51430;52.242;21.118;2023-05-20T14:52:34;101226.64;;;33.00;33.90
33795;BME280;51430;52.242;21.118;2023-05-20T14:55:03;101227.92;;;32.87;33.79
33795;BME280;51430;52.242;21.118;2023-05-20T14:57:31;101226.39;;;32.58;33.81
33795;BME280;51430;52.242;21.118;2023-05-20T14:59:58;101220.18;;;32.93;33.49
33795;BME280;51430;52.242;21.118;2023-05-20T15:02:26;101216.31;;;33.55;32.73
33795;BME280;51430;52.242;21.118;2023-05-20T15:04:54;101216.98;;;34.14;32.32
33795;BME280;51430;52.242;21.118;2023-05-20T15:07:22;101220.56;;;35.02;31.34
33795;BME280;51430;52.242;21.118;2023-05-20T15:09:50;101224.98;;;35.87;30.42
33795;BME280;51430;52.242;21.118;2023-05-20T15:12:17;101218.86;;;34.96;31.26
33795;BME280;51430;52.242;21.118;2023-05-20T15:14:45;101214.59;;;32.78;33.58
33795;BME280;51430;52.242;21.118;2023-05-20T15:17:13;101205.83;;;31.42;35.42
33795;BME280;51430;52.242;21.118;2023-05-20T15:19:41;101201.73;;;30.59;36.86
33795;BME280;51430;52.242;21.118;2023-05-20T15:22:09;101203.42;;;31.72;35.75
33795;BME280;51430;52.242;21.118;2023-05-20T15:24:36;101203.84;;;31.23;36.00
33795;BME280;51430;52.242;21.118;2023-05-20T15:27:04;101198.52;;;31.41;35.65
33795;BME280;51430;52.242;21.118;2023-05-20T15:29:38;101202.21;;;32.64;34.45
33795;BME280;51430;52.242;21.118;2023-05-20T15:32:07;101199.51;;;31.36;35.34
33795;BME280;51430;52.242;21.118;2023-05-20T15:34:35;101194.05;;;29.78;38.10
33795;BME280;51430;52.242;21.118;2023-05-20T15:37:03;101190.18;;;29.56;39.16
33795;BME280;51430;52.242;21.118;2023-05-20T15:39:30;101197.58;;;31.61;36.31
33795;BME280;51430;52.242;21.118;2023-05-20T15:41:58;101199.90;;;33.55;33.08
33795;BME280;51430;52.242;21.118;2023-05-20T15:44:28;101201.49;;;34.24;31.44
33795;BME280;51430;52.242;21.118;2023-05-20T15:46:56;101197.88;;;33.60;32.27
33795;BME280;51430;52.242;21.118;2023-05-20T15:49:24;101200.18;;;33.67;32.33
33795;BME280;51430;52.242;21.118;2023-05-20T15:51:52;101202.65;;;34.44;31.53
33795;BME280;51430;52.242;21.118;2023-05-20T15:54:30;101197.44;;;34.18;31.54
33795;BME280;51430;52.242;21.118;2023-05-20T15:56:59;101196.27;;;31.02;35.39
33795;BME280;51430;52.242;21.118;2023-05-20T15:59:29;101187.13;;;29.34;38.67
33795;BME280;51430;52.242;21.118;2023-05-20T16:01:56;101190.57;;;28.59;40.34
33795;BME280;51430;52.242;21.118;2023-05-20T16:04:24;101192.67;;;28.28;41.24
33795;BME280;51430;52.242;21.118;2023-05-20T16:06:52;101191.80;;;27.98;41.24
33795;BME280;51430;52.242;21.118;2023-05-20T16:09:20;101186.13;;;27.66;42.38
33795;BME280;51430;52.242;21.118;2023-05-20T16:11:49;101185.86;;;27.49;42.22
33795;BME280;51430;52.242;21.118;2023-05-20T16:14:16;101185.09;;;27.48;42.39
33795;BME280;51430;52.242;21.118;2023-05-20T16:16:48;101178.77;;;27.54;42.67
33795;BME280;51430;52.242;21.118;2023-05-20T16:19:15;101176.05;;;27.53;42.46
33795;BME280;51430;52.242;21.118;2023-05-20T16:21:44;101173.23;;;27.67;42.44
33795;BME280;51430;52.242;21.118;2023-05-20T16:24:12;101174.42;;;27.70;42.52
33795;BME280;51430;52.242;21.118;2023-05-20T16:26:40;101174.42;;;27.65;42.67
33795;BME280;51430;52.242;21.118;2023-05-20T16:29:08;101178.35;;;27.57;42.76
33795;BME280;51430;52.242;21.118;2023-05-20T16:31:36;101177.02;;;27.37;42.82
33795;BME280;51430;52.242;21.118;2023-05-20T16:34:04;101175.05;;;27.18;42.92
33795;BME280;51430;52.242;21.118;2023-05-20T16:36:32;101176.69;;;26.99;43.54
33795;BME280;51430;52.242;21.118;2023-05-20T16:38:59;101180.62;;;26.91;43.42
33795;BME280;51430;52.242;21.118;2023-05-20T16:41:27;101180.43;;;26.56;44.37
33795;BME280;51430;52.242;21.118;2023-05-20T16:43:55;101182.17;;;26.44;44.35
33795;BME280;51430;52.242;21.118;2023-05-20T16:46:23;101180.35;;;26.40;44.83
33795;BME280;51430;52.242;21.118;2023-05-20T16:48:51;101182.26;;;26.23;44.87
33795;BME280;51430;52.242;21.118;2023-05-20T16:51:19;101181.41;;;26.18;44.81
33795;BME280;51430;52.242;21.118;2023-05-20T16:53:47;101179.33;;;26.11;45.11
33795;BME280;51430;52.242;21.118;2023-05-20T16:56:14;101182.20;;;25.95;45.36
33795;BME280;51430;52.242;21.118;2023-05-20T16:58:42;101181.92;;;25.92;45.32
33795;BME280;51430;52.242;21.118;2023-05-20T17:01:10;101183.48;;;25.81;45.59
33795;BME280;51430;52.242;21.118;2023-05-20T17:03:38;101181.49;;;25.52;45.52
33795;BME280;51430;52.242;21.118;2023-05-20T17:06:05;101183.97;;;25.51;46.52
33795;BME280;51430;52.242;21.118;2023-05-20T17:08:34;101185.73;;;25.57;46.24
33795;BME280;51430;52.242;21.118;2023-05-20T17:11:03;101184.96;;;25.57;46.45
33795;BME280;51430;52.242;21.118;2023-05-20T17:13:31;101185.61;;;25.59;46.38
33795;BME280;51430;52.242;21.118;2023-05-20T17:15:58;101183.95;;;25.58;46.63
33795;BME280;51430;52.242;21.118;2023-05-20T17:18:26;101185.52;;;25.59;46.64
33795;BME280;51430;52.242;21.118;2023-05-20T17:20:54;101189.60;;;25.50;46.45
33795;BME280;51430;52.242;21.118;2023-05-20T17:23:22;101195.77;;;25.31;46.30
33795;BME280;51430;52.242;21.118;2023-05-20T17:25:50;101193.52;;;25.22;46.87
33795;BME280;51430;52.242;21.118;2023-05-20T17:28:18;101195.48;;;25.21;47.59
33795;BME280;51430;52.242;21.118;2023-05-20T17:30:46;101192.29;;;25.15;47.46
33795;BME280;51430;52.242;21.118;2023-05-20T17:33:13;101193.56;;;25.07;47.05
33795;BME280;51430;52.242;21.118;2023-05-20T17:35:41;101195.33;;;24.96;47.23
33795;BME280;51430;52.242;21.118;2023-05-20T17:38:09;101198.22;;;24.84;47.10
33795;BME280;51430;52.242;21.118;2023-05-20T17:40:37;101201.02;;;24.75;46.86
33795;BME280;51430;52.242;21.118;2023-05-20T17:43:05;101201.90;;;24.62;46.72
33795;BME280;51430;52.242;21.118;2023-05-20T17:45:33;101205.38;;;24.42;46.73
33795;BME280;51430;52.242;21.118;2023-05-20T17:48:00;101206.09;;;24.42;46.94
33795;BME280;51430;52.242;21.118;2023-05-20T17:50:37;101201.96;;;24.35;46.84
33795;BME280;51430;52.242;21.118;2023-05-20T17:53:04;101205.19;;;24.22;47.20
33795;BME280;51430;52.242;21.118;2023-05-20T17:55:33;101201.18;;;24.03;47.16
33795;BME280;51430;52.242;21.118;2023-05-20T17:58:03;101200.96;;;23.93;47.46
33795;BME280;51430;52.242;21.118;2023-05-20T18:00:31;101203.23;;;23.87;47.37
33795;BME280;51430;52.242;21.118;2023-05-20T18:03:01;101201.94;;;23.79;47.55
33795;BME280;51430;52.242;21.118;2023-05-20T18:05:29;101202.30;;;23.68;47.74
33795;BME280;51430;52.242;21.118;2023-05-20T18:07:57;101201.16;;;23.51;47.92